YBMI weather

Boomi Airport
New South Wales, Australia

Public forecast

Using degrees Celsius for public forecast. Weather courtesy of forecast.io.

METAR (pilot weather report)

Closest report is Moree Airport, 48.0 nm (88.9 km) SSE. Retrieved 2019/09/18 06:00 UTC (5 minutes ago):

YMOR 180600Z AUTO 27009KT 230V300 9999 // BKN064 24/06 Q1019

TAF (pilot weather forecast)

Forecast is more than 12 hours old.

Closest forecast is RAAF Base Amberley, 178.1 nm (329.8 km) ENE. Retrieved 2019/09/17 00:00 UTC (1 day ago):

TAF YAMB 172303Z 1800/1818 29010KT CAVOK FM180700 06010KT CAVOK FM181200 VRB03KT 9999 SCT030